createdAt,value
2019-05-01T00:02:10.645Z,14.73
2019-05-01T00:04:43.511Z,14.70
2019-05-01T00:07:16.293Z,14.66
2019-05-01T00:09:47.363Z,14.65
2019-05-01T00:12:18.671Z,14.62
2019-05-01T00:14:49.878Z,14.65
2019-05-01T00:17:21.036Z,14.61
2019-05-01T00:19:52.093Z,14.62
2019-05-01T00:22:24.260Z,14.60
2019-05-01T00:24:55.463Z,14.58
2019-05-01T00:27:26.571Z,14.57
2019-05-01T00:29:57.758Z,14.54
2019-05-01T00:32:28.876Z,14.53
2019-05-01T00:35:00.020Z,14.52
2019-05-01T00:37:31.199Z,14.52
2019-05-01T00:40:02.860Z,14.50
2019-05-01T00:42:34.962Z,14.49
2019-05-01T00:45:06.971Z,14.51
2019-05-01T00:47:38.092Z,14.51
2019-05-01T00:50:09.235Z,14.51
2019-05-01T00:52:40.419Z,14.53
2019-05-01T00:55:29.635Z,14.56
2019-05-01T00:58:05.003Z,14.52
2019-05-01T01:00:43.536Z,14.52
2019-05-01T01:03:15.771Z,14.50
2019-05-01T01:05:47.270Z,14.49
2019-05-01T01:08:18.381Z,14.44
2019-05-01T01:10:49.403Z,14.43
2019-05-01T01:13:20.513Z,14.41
2019-05-01T01:15:51.859Z,14.41
2019-05-01T01:18:22.931Z,14.41
2019-05-01T01:20:53.953Z,14.41
2019-05-01T01:23:24.998Z,14.41
2019-05-01T01:25:56.361Z,14.40
2019-05-01T01:28:27.678Z,14.39
2019-05-01T01:30:58.836Z,14.42
2019-05-01T01:33:30.105Z,14.39
2019-05-01T01:36:01.173Z,14.38
2019-05-01T01:38:32.329Z,14.39
2019-05-01T01:41:04.472Z,14.40
2019-05-01T01:43:37.208Z,14.41
2019-05-01T01:46:23.488Z,14.39
2019-05-01T01:48:54.671Z,14.36
2019-05-01T01:51:25.729Z,14.38
2019-05-01T01:53:57.345Z,14.37
2019-05-01T01:56:28.414Z,14.34
2019-05-01T01:58:59.572Z,14.36
2019-05-01T02:01:40.919Z,14.37
2019-05-01T02:04:13.910Z,14.36
2019-05-01T02:06:46.235Z,14.34
2019-05-01T02:09:17.353Z,14.34
2019-05-01T02:11:49.061Z,14.34
2019-05-01T02:14:20.110Z,14.35
2019-05-01T02:16:51.292Z,14.34
2019-05-01T02:19:22.413Z,14.33
2019-05-01T02:21:53.539Z,14.33
2019-05-01T02:24:24.758Z,14.32
2019-05-01T02:26:58.363Z,14.32
2019-05-01T02:29:33.697Z,14.33
2019-05-01T02:32:04.772Z,14.33
2019-05-01T02:34:36.982Z,14.34
2019-05-01T02:37:08.051Z,14.38
2019-05-01T02:39:39.119Z,14.34
2019-05-01T02:42:10.735Z,14.33
2019-05-01T02:44:44.975Z,14.34
2019-05-01T02:47:19.455Z,14.33
2019-05-01T02:49:52.794Z,14.33
2019-05-01T02:52:25.310Z,14.34
2019-05-01T02:54:57.423Z,14.34
2019-05-01T02:57:28.564Z,14.31
2019-05-01T02:59:59.734Z,14.32
2019-05-01T03:02:30.881Z,14.32
2019-05-01T03:05:01.891Z,14.33
2019-05-01T03:07:34.493Z,14.33
2019-05-01T03:10:09.267Z,14.34
2019-05-01T03:12:40.464Z,14.33
2019-05-01T03:15:12.235Z,14.35
2019-05-01T03:17:51.340Z,14.32
2019-05-01T03:20:24.021Z,14.31
2019-05-01T03:23:15.068Z,14.31
2019-05-01T03:25:46.120Z,14.33
2019-05-01T03:28:17.271Z,14.33
2019-05-01T03:30:48.403Z,14.31
2019-05-01T03:33:19.555Z,14.33
2019-05-01T03:35:50.577Z,14.31
2019-05-01T03:38:21.665Z,14.29
2019-05-01T03:40:52.717Z,14.32
2019-05-01T03:43:24.023Z,14.32
2019-05-01T03:45:55.295Z,14.34
2019-05-01T03:48:26.481Z,14.34
2019-05-01T03:50:57.529Z,14.37
2019-05-01T03:53:28.843Z,14.38
2019-05-01T03:56:00.057Z,14.38
2019-05-01T03:58:31.204Z,14.39
2019-05-01T04:01:12.874Z,14.41
2019-05-01T04:03:48.146Z,14.45
2019-05-01T04:06:19.352Z,14.45
2019-05-01T04:08:50.474Z,14.44
2019-05-01T04:11:21.771Z,14.44
2019-05-01T04:13:52.889Z,14.44
2019-05-01T04:16:24.028Z,14.43
2019-05-01T04:18:55.231Z,14.44
2019-05-01T04:21:27.994Z,14.47
2019-05-01T04:23:59.171Z,14.51
2019-05-01T04:26:30.297Z,14.52
2019-05-01T04:29:08.854Z,14.56
2019-05-01T04:31:50.967Z,14.62
2019-05-01T04:34:39.881Z,14.61
2019-05-01T04:37:15.562Z,14.60
2019-05-01T04:39:46.588Z,14.60
2019-05-01T04:42:17.948Z,14.58
2019-05-01T04:44:49.265Z,14.59
2019-05-01T04:47:20.319Z,14.60
2019-05-01T04:49:51.366Z,14.61
2019-05-01T04:52:22.470Z,14.63
2019-05-01T04:54:53.676Z,14.64
2019-05-01T04:57:24.673Z,14.68
2019-05-01T04:59:55.875Z,14.71
2019-05-01T05:02:37.702Z,14.73
2019-05-01T05:05:08.672Z,14.77
2019-05-01T05:07:39.810Z,14.77
2019-05-01T05:10:10.922Z,14.80
2019-05-01T05:12:49.335Z,14.79
2019-05-01T05:15:21.936Z,14.76
2019-05-01T05:17:54.145Z,14.82
2019-05-01T05:20:25.240Z,14.86
2019-05-01T05:22:56.298Z,14.87
2019-05-01T05:25:27.481Z,14.95
2019-05-01T05:27:58.992Z,15.01
2019-05-01T05:30:30.046Z,15.05
2019-05-01T05:33:01.189Z,15.11
2019-05-01T05:35:33.683Z,15.17
2019-05-01T05:38:19.011Z,15.20
2019-05-01T05:40:50.157Z,15.28
2019-05-01T05:43:21.429Z,15.32
2019-05-01T05:45:52.481Z,15.34
2019-05-01T05:48:23.622Z,15.38
2019-05-01T05:51:03.108Z,15.44
2019-05-01T05:53:35.854Z,15.48
2019-05-01T05:56:11.338Z,15.55
2019-05-01T05:58:45.003Z,15.56
2019-05-01T06:01:35.236Z,15.54
2019-05-01T06:04:08.364Z,15.63
2019-05-01T06:06:41.100Z,15.67
2019-05-01T06:09:15.361Z,15.72
2019-05-01T06:11:53.940Z,15.78
2019-05-01T06:14:42.940Z,15.85
2019-05-01T06:17:23.751Z,15.94
2019-05-01T06:20:01.324Z,16.03
2019-05-01T06:22:46.177Z,16.13
2019-05-01T06:25:34.009Z,16.18
2019-05-01T06:28:19.899Z,16.27
2019-05-01T06:30:50.208Z,16.31
2019-05-01T06:33:21.376Z,16.36
2019-05-01T06:35:53.082Z,16.43
2019-05-01T06:38:24.052Z,16.53
2019-05-01T06:40:58.182Z,16.58
2019-05-01T06:43:40.164Z,16.63
2019-05-01T06:46:13.055Z,16.64
2019-05-01T06:48:53.437Z,16.67
2019-05-01T06:51:36.340Z,16.72
2019-05-01T06:54:11.454Z,16.70
2019-05-01T06:56:42.075Z,16.70
2019-05-01T06:59:14.671Z,16.61
2019-05-01T07:01:46.484Z,16.61
2019-05-01T07:04:17.715Z,16.63
2019-05-01T07:06:48.912Z,16.64
2019-05-01T07:09:27.829Z,16.70
2019-05-01T07:11:54.528Z,16.72
2019-05-01T07:14:25.815Z,16.75
2019-05-01T07:16:57.116Z,16.69
2019-05-01T07:19:46.071Z,16.70
2019-05-01T07:22:17.198Z,16.71
2019-05-01T07:24:49.157Z,16.77
2019-05-01T07:27:23.747Z,16.81
2019-05-01T07:29:55.867Z,16.84
2019-05-01T07:32:27.053Z,16.92
2019-05-01T07:35:02.103Z,16.99
2019-05-01T07:37:30.921Z,16.98
2019-05-01T07:40:01.947Z,17.02
2019-05-01T07:42:34.840Z,17.09
2019-05-01T07:45:09.680Z,17.11
2019-05-01T07:47:44.838Z,17.14
2019-05-01T07:50:17.007Z,17.16
2019-05-01T07:52:52.181Z,17.17
2019-05-01T07:55:22.703Z,17.21
2019-05-01T07:57:53.869Z,17.25
2019-05-01T08:00:42.649Z,17.41
2019-05-01T08:03:14.361Z,17.62
2019-05-01T08:05:46.665Z,17.70
2019-05-01T08:08:18.136Z,17.79
2019-05-01T08:10:49.093Z,17.88
2019-05-01T08:13:21.345Z,18.00
2019-05-01T08:15:52.373Z,18.13
2019-05-01T08:18:42.958Z,18.31
2019-05-01T08:21:31.683Z,18.41
2019-05-01T08:24:02.910Z,18.51
2019-05-01T08:26:33.955Z,18.49
2019-05-01T08:29:21.989Z,18.55
2019-05-01T08:31:58.905Z,18.55
2019-05-01T08:34:31.962Z,18.60
2019-05-01T08:37:06.478Z,18.64
2019-05-01T08:39:39.649Z,18.66
2019-05-01T08:42:09.907Z,18.72
2019-05-01T08:44:48.432Z,18.77
2019-05-01T08:47:25.895Z,18.79
2019-05-01T08:49:58.312Z,18.78
2019-05-01T08:52:29.470Z,18.76
2019-05-01T08:55:04.423Z,18.75
2019-05-01T08:57:39.010Z,18.71
2019-05-01T09:00:07.883Z,18.61
2019-05-01T09:02:41.490Z,18.58
2019-05-01T09:05:27.715Z,18.55
2019-05-01T09:07:44.707Z,18.53
2019-05-01T09:10:17.046Z,18.51
2019-05-01T09:12:51.957Z,18.47
2019-05-01T09:15:21.824Z,18.49
2019-05-01T09:17:54.066Z,18.50
2019-05-01T09:20:25.245Z,18.50
2019-05-01T09:22:56.674Z,18.59
2019-05-01T09:25:38.579Z,18.65
2019-05-01T09:28:11.386Z,18.66
2019-05-01T09:30:50.168Z,18.68
2019-05-01T09:33:26.170Z,18.68
2019-05-01T09:35:55.069Z,18.70
2019-05-01T09:38:26.090Z,18.71
2019-05-01T09:40:57.273Z,18.70
2019-05-01T09:43:30.940Z,18.71
2019-05-01T09:46:02.167Z,18.71
2019-05-01T09:48:33.281Z,18.75
2019-05-01T09:51:15.205Z,18.82
2019-05-01T09:54:05.693Z,18.88
2019-05-01T09:56:38.373Z,18.98
2019-05-01T09:59:12.693Z,19.06
2019-05-01T10:01:42.989Z,19.19
2019-05-01T10:04:14.023Z,19.25
2019-05-01T10:06:47.679Z,19.36
2019-05-01T10:09:18.089Z,19.48
2019-05-01T10:11:49.268Z,19.60
2019-05-01T10:14:20.484Z,19.79
2019-05-01T10:16:51.714Z,20.01
2019-05-01T10:19:22.842Z,20.32
2019-05-01T10:21:57.821Z,20.60
2019-05-01T10:24:26.554Z,20.82
2019-05-01T10:27:00.081Z,20.92
2019-05-01T10:29:39.709Z,20.94
2019-05-01T10:32:16.985Z,20.97
2019-05-01T10:34:49.377Z,20.97
2019-05-01T10:37:20.467Z,20.92
2019-05-01T10:39:54.195Z,21.03
2019-05-01T10:42:24.307Z,21.03
2019-05-01T10:44:55.318Z,20.86
2019-05-01T10:47:26.334Z,20.80
2019-05-01T10:49:57.441Z,20.74
2019-05-01T10:52:28.331Z,20.57
2019-05-01T10:54:59.319Z,20.68
2019-05-01T10:57:35.114Z,20.73
2019-05-01T11:00:04.231Z,20.77
2019-05-01T11:02:35.457Z,20.75
2019-05-01T11:05:06.450Z,20.82
2019-05-01T11:07:37.483Z,20.74
2019-05-01T11:10:09.168Z,20.92
2019-05-01T11:12:40.239Z,20.85
2019-05-01T11:15:11.340Z,20.98
2019-05-01T11:17:43.640Z,20.95
2019-05-01T11:20:14.949Z,20.95
2019-05-01T11:22:45.972Z,20.99
2019-05-01T11:25:18.793Z,21.00
2019-05-01T11:27:50.171Z,21.02
2019-05-01T11:30:21.514Z,21.02
2019-05-01T11:33:00.066Z,21.05
2019-05-01T11:35:48.122Z,21.05
2019-05-01T11:38:37.086Z,21.09
2019-05-01T11:41:12.620Z,21.09
2019-05-01T11:43:43.164Z,21.13
2019-05-01T11:46:14.148Z,21.05
2019-05-01T11:48:45.256Z,21.09
2019-05-01T11:51:16.394Z,21.17
2019-05-01T11:53:47.539Z,21.12
2019-05-01T11:56:18.612Z,21.11
2019-05-01T11:58:49.778Z,21.13
2019-05-01T12:01:22.515Z,21.11
2019-05-01T12:03:53.712Z,21.27
2019-05-01T12:06:24.756Z,21.27
2019-05-01T12:08:56.143Z,21.26
2019-05-01T12:11:28.973Z,21.31
2019-05-01T12:14:00.029Z,21.26
2019-05-01T12:16:48.698Z,21.44
2019-05-01T12:19:20.590Z,21.44
2019-05-01T12:21:52.350Z,21.39
2019-05-01T12:24:26.883Z,21.45
2019-05-01T12:26:57.945Z,21.48
2019-05-01T12:29:29.395Z,21.49
2019-05-01T12:32:00.577Z,21.47
2019-05-01T12:34:34.697Z,21.48
2019-05-01T12:37:16.305Z,21.39
2019-05-01T12:39:48.230Z,21.30
2019-05-01T12:42:21.089Z,21.26
2019-05-01T12:44:52.210Z,21.33
2019-05-01T12:47:33.869Z,21.33
2019-05-01T12:50:07.437Z,21.37
2019-05-01T12:52:46.514Z,21.43
2019-05-01T12:55:34.633Z,21.43
2019-05-01T12:58:05.724Z,21.34
2019-05-01T13:00:47.310Z,21.39
2019-05-01T13:03:18.498Z,21.41
2019-05-01T13:05:49.481Z,21.31
2019-05-01T13:08:20.597Z,21.35
2019-05-01T13:10:51.665Z,21.39
2019-05-01T13:13:22.792Z,21.38
2019-05-01T13:15:53.888Z,21.37
2019-05-01T13:18:25.733Z,21.27
2019-05-01T13:20:56.875Z,21.48
2019-05-01T13:23:28.035Z,21.45
2019-05-01T13:26:00.794Z,21.37
2019-05-01T13:28:48.833Z,21.38
2019-05-01T13:31:39.304Z,21.36
2019-05-01T13:34:11.173Z,21.30
2019-05-01T13:36:42.229Z,21.31
2019-05-01T13:39:13.323Z,21.31
2019-05-01T13:41:44.387Z,21.21
2019-05-01T13:44:15.474Z,21.21
2019-05-01T13:46:46.855Z,21.37
2019-05-01T13:49:17.869Z,21.29
2019-05-01T13:51:49.105Z,21.28
2019-05-01T13:54:21.643Z,21.29
2019-05-01T13:56:52.751Z,21.27
2019-05-01T13:59:23.742Z,21.23
2019-05-01T14:01:54.900Z,20.97
2019-05-01T14:04:29.187Z,21.04
2019-05-01T14:07:00.350Z,21.05
2019-05-01T14:09:33.033Z,21.02
2019-05-01T14:12:04.177Z,21.00
2019-05-01T14:14:35.161Z,20.99
2019-05-01T14:17:07.264Z,21.02
2019-05-01T14:19:39.962Z,21.02
2019-05-01T14:22:27.554Z,20.92
2019-05-01T14:25:03.325Z,20.90
2019-05-01T14:27:34.437Z,20.93
2019-05-01T14:30:07.924Z,20.87
2019-05-01T14:32:38.942Z,20.92
2019-05-01T14:35:10.008Z,20.83
2019-05-01T14:37:41.161Z,20.84
2019-05-01T14:40:12.213Z,20.88
2019-05-01T14:42:43.428Z,20.86
2019-05-01T14:45:14.622Z,20.84
2019-05-01T14:47:45.724Z,20.84
2019-05-01T14:50:20.011Z,20.82
2019-05-01T14:52:51.076Z,20.80
2019-05-01T14:55:23.982Z,20.79
2019-05-01T14:57:55.097Z,20.70
2019-05-01T15:00:26.105Z,20.70
2019-05-01T15:02:57.292Z,20.79
2019-05-01T15:05:28.307Z,20.79
2019-05-01T15:07:59.439Z,20.79
2019-05-01T15:10:30.642Z,20.82
2019-05-01T15:13:15.494Z,20.85
2019-05-01T15:15:51.099Z,20.87
2019-05-01T15:18:26.331Z,20.78
2019-05-01T15:20:58.305Z,20.85
2019-05-01T15:23:29.265Z,20.85
2019-05-01T15:26:00.357Z,20.86
2019-05-01T15:28:31.541Z,20.85
2019-05-01T15:31:03.920Z,20.88
2019-05-01T15:33:35.035Z,20.85
2019-05-01T15:36:06.106Z,20.85
2019-05-01T15:38:37.177Z,20.83
2019-05-01T15:41:26.143Z,20.83
2019-05-01T15:44:04.738Z,20.96
2019-05-01T15:46:37.388Z,20.96
2019-05-01T15:49:08.448Z,20.95
2019-05-01T15:51:39.599Z,20.95
2019-05-01T15:54:10.672Z,20.93
2019-05-01T15:56:41.879Z,20.91
2019-05-01T15:59:13.458Z,20.92
2019-05-01T16:01:44.578Z,20.92
2019-05-01T16:04:15.752Z,20.86
2019-05-01T16:06:47.562Z,20.81
2019-05-01T16:09:18.615Z,20.68
2019-05-01T16:12:00.373Z,20.72
2019-05-01T16:14:31.433Z,20.66
2019-05-01T16:17:02.622Z,20.60
2019-05-01T16:19:33.822Z,20.55
2019-05-01T16:22:05.095Z,20.52
2019-05-01T16:24:36.127Z,20.49
2019-05-01T16:27:07.255Z,20.44
2019-05-01T16:29:38.260Z,20.39
2019-05-01T16:32:09.461Z,20.36
2019-05-01T16:34:40.495Z,20.31
2019-05-01T16:37:11.634Z,20.29
2019-05-01T16:39:47.475Z,20.27
2019-05-01T16:42:18.552Z,20.22
2019-05-01T16:44:49.837Z,20.19
2019-05-01T16:47:21.326Z,20.17
2019-05-01T16:49:54.202Z,20.12
2019-05-01T16:52:26.889Z,20.06
2019-05-01T16:54:59.447Z,20.02
2019-05-01T16:57:30.702Z,20.02
2019-05-01T17:00:01.782Z,20.00
2019-05-01T17:02:50.946Z,19.96
2019-05-01T17:05:38.988Z,19.93
2019-05-01T17:08:11.732Z,19.89
2019-05-01T17:10:45.859Z,19.80
2019-05-01T17:13:18.303Z,19.72
2019-05-01T17:15:51.322Z,19.75
2019-05-01T17:18:22.561Z,19.77
2019-05-01T17:20:53.586Z,19.77
2019-05-01T17:23:24.681Z,19.76
2019-05-01T17:25:55.997Z,19.71
2019-05-01T17:28:27.498Z,19.62
2019-05-01T17:31:00.229Z,19.60
2019-05-01T17:33:31.404Z,19.57
2019-05-01T17:36:02.499Z,19.55
2019-05-01T17:38:33.546Z,19.54
2019-05-01T17:41:04.758Z,19.49
2019-05-01T17:43:35.813Z,19.44
2019-05-01T17:46:10.683Z,19.45
2019-05-01T17:48:39.741Z,19.42
2019-05-01T17:51:10.801Z,19.36
2019-05-01T17:53:41.696Z,19.27
2019-05-01T17:56:15.333Z,19.23
2019-05-01T17:58:45.907Z,19.23
2019-05-01T18:01:21.302Z,19.21
2019-05-01T18:04:02.526Z,19.17
2019-05-01T18:06:35.124Z,19.15
2019-05-01T18:09:13.423Z,19.09
2019-05-01T18:11:41.059Z,19.06
2019-05-01T18:14:12.062Z,19.08
2019-05-01T18:16:43.214Z,19.03
2019-05-01T18:19:14.314Z,19.00
2019-05-01T18:21:51.766Z,18.91
2019-05-01T18:24:39.123Z,18.91
2019-05-01T18:27:19.011Z,18.77
2019-05-01T18:29:52.609Z,18.76
2019-05-01T18:32:25.390Z,18.75
2019-05-01T18:34:56.498Z,18.75
2019-05-01T18:37:31.256Z,18.61
2019-05-01T18:40:02.008Z,18.61
2019-05-01T18:42:33.047Z,18.57
2019-05-01T18:45:09.612Z,18.59
2019-05-01T18:47:40.767Z,18.54
2019-05-01T18:50:13.604Z,18.48
2019-05-01T18:52:44.513Z,18.42
2019-05-01T18:55:15.588Z,18.41
2019-05-01T18:57:46.533Z,18.36
2019-05-01T19:00:17.457Z,18.35
2019-05-01T19:02:48.419Z,18.29
2019-05-01T19:05:19.404Z,18.27
2019-05-01T19:07:50.498Z,18.27
2019-05-01T19:10:25.547Z,18.26
2019-05-01T19:12:58.420Z,18.25
2019-05-01T19:15:32.327Z,18.25
2019-05-01T19:18:05.641Z,18.12
2019-05-01T19:20:39.141Z,18.13
2019-05-01T19:23:12.124Z,18.13
2019-05-01T19:25:46.127Z,18.11
2019-05-01T19:28:19.632Z,18.12
2019-05-01T19:30:52.923Z,18.14
2019-05-01T19:33:26.115Z,18.11
2019-05-01T19:36:02.482Z,18.11
2019-05-01T19:38:35.156Z,18.11
2019-05-01T19:41:13.909Z,18.06
2019-05-01T19:43:43.896Z,18.06
2019-05-01T19:46:18.350Z,17.96
2019-05-01T19:48:52.696Z,17.97
2019-05-01T19:51:26.149Z,17.92
2019-05-01T19:54:00.557Z,17.96
2019-05-01T19:56:34.769Z,17.89
2019-05-01T19:59:08.066Z,17.85
2019-05-01T20:01:44.092Z,17.80
2019-05-01T20:04:18.126Z,17.72
2019-05-01T20:06:51.022Z,17.70
2019-05-01T20:09:25.119Z,17.60
2019-05-01T20:11:58.109Z,17.64
2019-05-01T20:14:31.001Z,17.65
2019-05-01T20:17:09.433Z,17.61
2019-05-01T20:19:38.900Z,17.60
2019-05-01T20:22:12.407Z,17.61
2019-05-01T20:24:46.209Z,17.57
2019-05-01T20:27:20.328Z,17.50
2019-05-01T20:29:53.411Z,17.52
2019-05-01T20:32:28.030Z,17.52
2019-05-01T20:35:01.537Z,17.53
2019-05-01T20:37:34.180Z,17.52
2019-05-01T20:40:11.238Z,17.50
2019-05-01T20:42:41.713Z,17.46
2019-05-01T20:45:18.081Z,17.41
2019-05-01T20:47:48.180Z,17.46
2019-05-01T20:50:20.111Z,17.43
2019-05-01T20:52:51.332Z,17.40
2019-05-01T20:55:22.551Z,17.36
2019-05-01T20:57:56.251Z,17.25
2019-05-01T21:00:27.985Z,17.30
2019-05-01T21:02:58.999Z,17.27
2019-05-01T21:05:49.751Z,17.21
2019-05-01T21:08:34.350Z,17.17
2019-05-01T21:11:13.059Z,17.08
2019-05-01T21:13:44.142Z,17.07
2019-05-01T21:16:16.477Z,17.04
2019-05-01T21:18:47.384Z,17.08
2019-05-01T21:21:18.477Z,17.04
2019-05-01T21:23:53.409Z,17.03
2019-05-01T21:26:23.418Z,16.99
2019-05-01T21:28:55.185Z,16.93
2019-05-01T21:31:26.074Z,16.93
2019-05-01T21:33:57.141Z,16.94
2019-05-01T21:36:28.222Z,16.89
2019-05-01T21:38:59.139Z,16.93
2019-05-01T21:41:30.162Z,16.96
2019-05-01T21:44:03.115Z,16.93
2019-05-01T21:46:34.123Z,16.86
2019-05-01T21:49:05.199Z,16.78
2019-05-01T21:51:37.033Z,16.82
2019-05-01T21:54:08.846Z,16.77
2019-05-01T21:56:41.501Z,16.78
2019-05-01T21:59:12.418Z,16.76
2019-05-01T22:01:44.759Z,16.70
2019-05-01T22:04:15.912Z,16.68
2019-05-01T22:06:51.882Z,16.61
2019-05-01T22:09:21.133Z,16.62
2019-05-01T22:11:52.165Z,16.64
2019-05-01T22:14:25.708Z,16.64
2019-05-01T22:16:57.963Z,16.62
2019-05-01T22:19:30.601Z,16.62
2019-05-01T22:22:08.901Z,16.56
2019-05-01T22:24:47.404Z,16.57
2019-05-01T22:27:26.115Z,16.43
2019-05-01T22:30:15.348Z,16.43
2019-05-01T22:32:47.959Z,16.28
2019-05-01T22:35:20.685Z,16.33
2019-05-01T22:37:51.723Z,16.39
2019-05-01T22:40:24.217Z,16.45
2019-05-01T22:42:55.183Z,16.39
2019-05-01T22:45:26.748Z,16.39
2019-05-01T22:47:57.835Z,16.45
2019-05-01T22:50:28.858Z,16.42
2019-05-01T22:52:59.912Z,16.39
2019-05-01T22:55:30.773Z,16.34
2019-05-01T22:58:01.655Z,16.37
2019-05-01T23:00:39.822Z,16.36
2019-05-01T23:03:15.231Z,16.25
2019-05-01T23:05:46.230Z,16.21
2019-05-01T23:08:17.234Z,16.21
2019-05-01T23:10:48.599Z,16.20
2019-05-01T23:13:19.636Z,16.22
2019-05-01T23:15:56.314Z,16.22
2019-05-01T23:18:27.253Z,16.22
2019-05-01T23:20:58.276Z,16.20
2019-05-01T23:23:29.240Z,16.20
2019-05-01T23:26:00.190Z,16.14
2019-05-01T23:28:34.998Z,16.20
2019-05-01T23:31:04.662Z,16.23
2019-05-01T23:33:35.736Z,16.14
2019-05-01T23:36:06.812Z,16.17
2019-05-01T23:38:37.893Z,16.16
2019-05-01T23:41:08.966Z,16.19
2019-05-01T23:43:39.936Z,16.16
2019-05-01T23:46:10.910Z,16.10
2019-05-01T23:48:41.793Z,16.07
2019-05-01T23:51:12.804Z,16.00
2019-05-01T23:53:44.272Z,15.99
2019-05-01T23:56:16.403Z,15.99
2019-05-01T23:58:47.303Z,15.97
